• Join FlightAware (Why Join?)
  • Login
  • US Flag 
12:48AM EST


 

Airport Tracker/Info


-or-


 

Live Flight TrackerFlight Track Log ✈ N9012F ✈ 26-Apr-2013 ✈ KMDT - 5B2

Flight Track Log - Related Links

Times and Time Zones

All times are in EDT time to prevent confusion due to time zone crossing. See the N9012F flight status page for this flight to view local times or setup timezone preferences in your user account.

Time Position Orientation Groundspeed Altitude Reporting Facility
EDT Latitude Longitude Course Direction KTS MPH feet Rate Location/Type
10:49AM 40.3533 -76.8856 North 132 152 5,500  Level New York Center
10:50AM 40.3849 -76.5651 37° Northeast  Level FlightAware Approximate
10:50AM 40.3886 -76.8861 359° North 137 158 6,300  Level New York Center
10:51AM 40.4184 -76.5317 37° Northeast  Level FlightAware Approximate
10:51AM 40.4222 -76.8836 North 137 158 7,100  Level New York Center
10:52AM 40.4417 -76.4916 37° Northeast  Level FlightAware Approximate
10:52AM 40.4597 -76.8814 North 132 152 9,000  Level New York Center
10:53AM 40.4785 -76.4715 37° Northeast  Level FlightAware Approximate
10:53AM 40.4994 -76.8767 North 132 152 8,000  Level New York Center
10:54AM 40.5120 -76.4380 37° Northeast  Level FlightAware Approximate
10:54AM 40.5403 -76.8531 24° Northeast 146 168 8,000  Level New York Center
10:55AM 40.5756 -76.8153 39° Northeast 153 176 8,400 420 Climbing New York Center
10:56AM 40.6044 -76.7850 39° Northeast 165 190 8,900 480 Climbing New York Center
10:57AM 40.6400 -76.7414 43° Northeast 165 190 9,400 480 Climbing New York Center
10:58AM 40.6714 -76.6950 48° Northeast 160 184 9,900 480 Climbing New York Center
10:59AM 40.7006 -76.6564 45° Northeast 160 184 10,400 480 Climbing New York Center
11:00AM 40.7319 -76.6069 50° Northeast 160 184 10,900 240 Climbing New York Center
11:01AM 40.7636 -76.5578 50° Northeast 160 184 11,000  Climbing New York Center
11:02AM 40.7950 -76.5111 48° Northeast 178 205 11,000  Level New York Center
11:03AM 40.8331 -76.4567 47° Northeast 178 205 11,000  Level New York Center
11:04AM 40.8647 -76.4072 50° Northeast 173 199 11,000  Level New York Center
11:05AM 40.8961 -76.3575 50° Northeast 178 205 11,000  Level New York Center
11:06AM 40.9272 -76.3161 45° Northeast 178 205 11,000  Level New York Center
11:07AM 40.9589 -76.2664 50° Northeast 178 205 11,000  Level New York Center
11:08AM 40.9967 -76.2117 48° Northeast 172 198 11,000  Level New York Center
11:09AM 41.0303 -76.1594 50° Northeast 172 198 11,000  Level New York Center
11:10AM 41.0619 -76.1097 50° Northeast 172 198 11,000  Level New York Center
11:11AM 41.0931 -76.0653 47° Northeast 172 198 11,000  Level New York Center
11:12AM 41.1264 -76.0156 48° Northeast 172 198 11,000  Level New York Center
11:13AM 41.1644 -75.9578 49° Northeast 177 204 11,000  Level New York Center
11:14AM 41.1978 -75.9081 48° Northeast 172 198 11,000  Level New York Center
11:15AM 41.2314 -75.8556 50° Northeast 177 204 11,000  Level New York Center
11:16AM 41.2625 -75.8108 47° Northeast 177 204 11,000  Level New York Center
11:17AM 41.2961 -75.7553 51° Northeast 177 204 11,000  Level New York Center
11:18AM 41.3317 -75.7028 48° Northeast 177 204 11,000  Level New York Center
11:19AM 41.3647 -75.6528 49° Northeast 177 204 11,000  Level New York Center
11:21AM 41.4344 -75.5469 49° Northeast 185 213 11,000  Level Boston Center
11:22AM 41.4692 -75.4933 49° Northeast 185 213 11,000  Level Boston Center
11:24AM 41.5144 -75.4344 44° Northeast 185 213 11,000  Level Boston Center
11:25AM 41.5514 -75.3861 44° Northeast 185 213 11,000  Level Boston Center
11:26AM 41.5881 -75.3381 44° Northeast 185 213 11,000  Level Boston Center
11:27AM 41.6331 -75.2817 43° Northeast 185 213 11,100  Climbing Boston Center
11:28AM 41.6675 -75.2358 45° Northeast 180 207 11,000  Descending Boston Center
11:29AM 41.7042 -75.1903 43° Northeast 180 207 11,100  Climbing Boston Center
11:30AM 41.7408 -75.1444 43° Northeast 180 207 11,100  Level Boston Center
11:31AM 41.7836 -75.0906 43° Northeast 175 201 11,100  Level Boston Center
11:32AM 41.8161 -75.0447 46° Northeast 175 201 11,100  Level Boston Center
11:33AM 41.8458 -75.0125 39° Northeast 174 200 11,100 -60 Level Boston Center
11:34AM 41.8947 -74.9697 33° Northeast 174 200 11,000 -300 Descending Boston Center
11:35AM 41.9375 -74.9297 35° Northeast 174 200 10,600 -480 Descending Boston Center
11:36AM 41.9822 -74.8839 37° Northeast 193 222 10,000 -540 Descending Boston Center
11:37AM 42.0311 -74.8411 33° Northeast 193 222 9,500 -540 Descending Boston Center
11:38AM 42.0714 -74.8064 33° Northeast 193 222 9,000 -300 Descending Boston Center
11:39AM 42.1161 -74.7661 34° Northeast 182 209 9,000  Level Boston Center
11:40AM 42.1564 -74.7283 35° Northeast 176 203 9,000  Level Boston Center
11:41AM 42.1969 -74.6850 38° Northeast 176 203 9,000 60 Level Boston Center
11:41AM 42.2053 -74.6797 25° Northeast 174 200 9,100  Climbing Boston Center
11:42AM 42.2350 -74.6497 37° Northeast 176 203 9,000 -120 Descending Boston Center
11:42AM 42.2542 -74.6308 36° Northeast 177 204 9,000  Level Boston Center
11:43AM 42.2753 -74.6147 29° Northeast 176 203 9,000  Level Boston Center
11:43AM 42.2944 -74.5931 40° Northeast 177 204 9,000  Level Boston Center
11:44AM 42.3156 -74.5769 29° Northeast 171 197 9,000  Level Boston Center
11:44AM 42.3369 -74.5550 37° Northeast 177 204 9,000  Level Boston Center
11:45AM 42.3561 -74.5306 43° Northeast 183 211 9,000  Level Boston Center
11:46AM 42.3794 -74.5114 31° Northeast 177 204 9,000  Level Boston Center
11:46AM 42.3944 -74.4953 38° Northeast 178 205 9,000  Level Boston Center
11:47AM 42.4175 -74.4733 35° Northeast 178 205 9,000  Level Boston Center
11:47AM 42.4367 -74.4544 36° Northeast 172 198 9,000  Level Boston Center
11:48AM 42.4600 -74.4353 31° Northeast 179 206 9,000 -120 Level Boston Center
11:48AM 42.4769 -74.4133 44° Northeast 172 198 8,900 -420 Descending Boston Center
11:49AM 42.5025 -74.3944 29° Northeast 184 212 8,600 -540 Descending Boston Center
11:49AM 42.5194 -74.3753 40° Northeast 177 204 8,400 -540 Descending Boston Center
11:50AM 42.5469 -74.3536 30° Northeast 194 223 8,100 -540 Descending Boston Center
11:50AM 42.5639 -74.3317 44° Northeast 182 209 7,900 -540 Descending Boston Center
11:51AM 42.5892 -74.3125 29° Northeast 196 226 7,600 -420 Descending Boston Center
11:51AM 42.6083 -74.2906 40° Northeast 182 209 7,500 -540 Descending Boston Center
11:52AM 42.6336 -74.2689 32° Northeast 194 223 7,100 -600 Descending Boston Center
11:52AM 42.6528 -74.2469 40° Northeast 189 217 6,900 -600 Descending Boston Center
11:53AM 42.6781 -74.2250 33° Northeast 192 221 6,500 -600 Descending Boston Center
11:53AM 42.6953 -74.2056 40° Northeast 189 217 6,300 -600 Descending Boston Center
11:53AM 42.7183 -74.1922 23° Northeast 184 212 6,000 -600 Descending Boston Center
11:54AM 42.7333 -74.1700 47° Northeast 173 199 5,700 -600 Descending Boston Center
11:55AM 42.7500 -74.1536 36° Northeast 158 182 5,400 -600 Descending Boston Center
11:55AM 42.7692 -74.1342 37° Northeast 166 191 5,100 -600 Descending Boston Center
11:56AM 42.7925 -74.1150 31° Northeast 166 191 4,800 -600 Descending Boston Center
11:57AM 42.8325 -74.0794 33° Northeast 168 193 4,200 -420 Descending Boston Center
11:58AM 42.8664 -74.0461 36° Northeast 150 173 4,000 -240 Descending Boston Center